sensor_id;sensor_type;location;lat;lon;timestamp;temperature;humidity
48836;DHT22;62581;47.342;7.908;2023-04-24T00:00:47;11.20;99.90
48836;DHT22;62581;47.342;7.908;2023-04-24T00:03:14;11.20;99.90
48836;DHT22;62581;47.342;7.908;2023-04-24T00:05:40;11.20;99.90
48836;DHT22;62581;47.342;7.908;2023-04-24T00:08:07;11.10;99.90
48836;DHT22;62581;47.342;7.908;2023-04-24T00:10:34;11.10;99.90
48836;DHT22;62581;47.342;7.908;2023-04-24T00:13:01;11.00;99.90
48836;DHT22;62581;47.342;7.908;2023-04-24T00:15:28;11.00;99.90
48836;DHT22;62581;47.342;7.908;2023-04-24T00:17:56;11.00;99.90
48836;DHT22;62581;47.342;7.908;2023-04-24T00:20:22;11.00;99.90
48836;DHT22;62581;47.342;7.908;2023-04-24T00:22:49;10.90;99.90
48836;DHT22;62581;47.342;7.908;2023-04-24T00:25:16;11.00;99.90
48836;DHT22;62581;47.342;7.908;2023-04-24T00:27:43;10.90;99.90
48836;DHT22;62581;47.342;7.908;2023-04-24T00:30:10;10.90;99.90
48836;DHT22;62581;47.342;7.908;2023-04-24T00:32:36;10.90;99.90
48836;DHT22;62581;47.342;7.908;2023-04-24T00:35:05;10.90;99.90
48836;DHT22;62581;47.342;7.908;2023-04-24T00:37:32;10.80;99.90
48836;DHT22;62581;47.342;7.908;2023-04-24T00:39:59;10.80;99.90
48836;DHT22;62581;47.342;7.908;2023-04-24T00:42:25;10.80;99.90
48836;DHT22;62581;47.342;7.908;2023-04-24T00:44:52;10.80;99.90
48836;DHT22;62581;47.342;7.908;2023-04-24T00:47:19;10.80;99.90
48836;DHT22;62581;47.342;7.908;2023-04-24T00:49:47;10.80;99.90
48836;DHT22;62581;47.342;7.908;2023-04-24T00:52:15;10.80;99.90
48836;DHT22;62581;47.342;7.908;2023-04-24T00:54:43;10.80;99.90
48836;DHT22;62581;47.342;7.908;2023-04-24T00:57:09;10.70;99.90
48836;DHT22;62581;47.342;7.908;2023-04-24T00:59:36;10.70;99.90
48836;DHT22;62581;47.342;7.908;2023-04-24T01:02:03;10.60;99.90
48836;DHT22;62581;47.342;7.908;2023-04-24T01:04:30;10.60;99.90
48836;DHT22;62581;47.342;7.908;2023-04-24T01:06:57;10.60;99.90
48836;DHT22;62581;47.342;7.908;2023-04-24T01:09:25;10.60;99.90
48836;DHT22;62581;47.342;7.908;2023-04-24T01:11:52;10.60;99.90
48836;DHT22;62581;47.342;7.908;2023-04-24T01:14:19;10.60;99.90
48836;DHT22;62581;47.342;7.908;2023-04-24T01:16:46;10.60;99.90
48836;DHT22;62581;47.342;7.908;2023-04-24T01:19:13;10.60;99.90
48836;DHT22;62581;47.342;7.908;2023-04-24T01:21:41;10.60;99.90
48836;DHT22;62581;47.342;7.908;2023-04-24T01:24:10;10.60;99.90
48836;DHT22;62581;47.342;7.908;2023-04-24T01:26:37;10.50;99.90
48836;DHT22;62581;47.342;7.908;2023-04-24T01:29:04;10.50;99.90
48836;DHT22;62581;47.342;7.908;2023-04-24T01:31:30;10.50;99.90
48836;DHT22;62581;47.342;7.908;2023-04-24T01:33:58;10.50;99.90
48836;DHT22;62581;47.342;7.908;2023-04-24T01:36:25;10.50;99.90
48836;DHT22;62581;47.342;7.908;2023-04-24T01:38:53;10.50;99.90
48836;DHT22;62581;47.342;7.908;2023-04-24T01:41:21;10.50;99.90
48836;DHT22;62581;47.342;7.908;2023-04-24T01:43:48;10.40;99.90
48836;DHT22;62581;47.342;7.908;2023-04-24T01:46:16;10.30;99.90
48836;DHT22;62581;47.342;7.908;2023-04-24T01:48:43;10.30;99.90
48836;DHT22;62581;47.342;7.908;2023-04-24T01:51:11;10.20;99.90
48836;DHT22;62581;47.342;7.908;2023-04-24T01:53:37;10.20;99.90
48836;DHT22;62581;47.342;7.908;2023-04-24T01:56:04;10.10;99.90
48836;DHT22;62581;47.342;7.908;2023-04-24T01:58:32;10.20;99.90
48836;DHT22;62581;47.342;7.908;2023-04-24T02:00:59;10.20;99.90
48836;DHT22;62581;47.342;7.908;2023-04-24T02:03:26;10.10;99.90
48836;DHT22;62581;47.342;7.908;2023-04-24T02:05:53;10.10;99.90
48836;DHT22;62581;47.342;7.908;2023-04-24T02:08:20;10.20;99.90
48836;DHT22;62581;47.342;7.908;2023-04-24T02:10:47;10.20;99.90
48836;DHT22;62581;47.342;7.908;2023-04-24T02:13:13;10.20;99.90
48836;DHT22;62581;47.342;7.908;2023-04-24T02:15:41;10.20;99.90
48836;DHT22;62581;47.342;7.908;2023-04-24T02:18:08;10.20;99.90
48836;DHT22;62581;47.342;7.908;2023-04-24T02:20:36;10.30;99.90
48836;DHT22;62581;47.342;7.908;2023-04-24T02:23:03;10.20;99.90
48836;DHT22;62581;47.342;7.908;2023-04-24T02:25:30;10.30;99.90
48836;DHT22;62581;47.342;7.908;2023-04-24T02:27:57;10.20;99.90
48836;DHT22;62581;47.342;7.908;2023-04-24T02:30:23;10.30;99.90
48836;DHT22;62581;47.342;7.908;2023-04-24T02:32:52;10.30;99.90
48836;DHT22;62581;47.342;7.908;2023-04-24T02:35:19;10.30;99.90
48836;DHT22;62581;47.342;7.908;2023-04-24T02:37:45;10.30;99.90
48836;DHT22;62581;47.342;7.908;2023-04-24T02:40:12;10.20;99.90
48836;DHT22;62581;47.342;7.908;2023-04-24T02:42:39;10.20;99.90
48836;DHT22;62581;47.342;7.908;2023-04-24T02:45:06;10.20;99.90
48836;DHT22;62581;47.342;7.908;2023-04-24T02:47:33;10.20;99.90
48836;DHT22;62581;47.342;7.908;2023-04-24T02:50:01;10.20;99.90
48836;DHT22;62581;47.342;7.908;2023-04-24T02:52:28;10.20;99.90
48836;DHT22;62581;47.342;7.908;2023-04-24T02:54:55;10.20;99.90
48836;DHT22;62581;47.342;7.908;2023-04-24T02:57:21;10.20;99.90
48836;DHT22;62581;47.342;7.908;2023-04-24T02:59:48;10.30;99.90
48836;DHT22;62581;47.342;7.908;2023-04-24T03:02:15;10.30;99.90
48836;DHT22;62581;47.342;7.908;2023-04-24T03:04:41;10.30;99.90
48836;DHT22;62581;47.342;7.908;2023-04-24T03:07:10;10.30;99.90
48836;DHT22;62581;47.342;7.908;2023-04-24T03:09:37;10.30;99.90
48836;DHT22;62581;47.342;7.908;2023-04-24T03:12:04;10.30;99.90
48836;DHT22;62581;47.342;7.908;2023-04-24T03:14:30;10.20;99.90
48836;DHT22;62581;47.342;7.908;2023-04-24T03:16:57;10.20;99.90
48836;DHT22;62581;47.342;7.908;2023-04-24T03:19:24;10.20;99.90
48836;DHT22;62581;47.342;7.908;2023-04-24T03:21:51;10.20;99.90
48836;DHT22;62581;47.342;7.908;2023-04-24T03:24:19;10.20;99.90
48836;DHT22;62581;47.342;7.908;2023-04-24T03:26:46;10.20;99.90
48836;DHT22;62581;47.342;7.908;2023-04-24T03:29:12;10.20;99.90
48836;DHT22;62581;47.342;7.908;2023-04-24T03:31:39;10.20;99.90
48836;DHT22;62581;47.342;7.908;2023-04-24T03:34:06;10.20;99.90
48836;DHT22;62581;47.342;7.908;2023-04-24T03:36:32;10.10;99.90
48836;DHT22;62581;47.342;7.908;2023-04-24T03:38:59;10.10;99.90
48836;DHT22;62581;47.342;7.908;2023-04-24T03:41:27;10.10;99.90
48836;DHT22;62581;47.342;7.908;2023-04-24T03:43:55;10.10;99.90
48836;DHT22;62581;47.342;7.908;2023-04-24T03:46:22;10.10;99.90
48836;DHT22;62581;47.342;7.908;2023-04-24T03:48:48;10.10;99.90
48836;DHT22;62581;47.342;7.908;2023-04-24T03:51:15;10.00;99.90
48836;DHT22;62581;47.342;7.908;2023-04-24T03:53:42;10.00;99.90
48836;DHT22;62581;47.342;7.908;2023-04-24T03:56:09;10.00;99.90
48836;DHT22;62581;47.342;7.908;2023-04-24T03:58:37;10.00;99.90
48836;DHT22;62581;47.342;7.908;2023-04-24T04:01:03;10.00;99.90
48836;DHT22;62581;47.342;7.908;2023-04-24T04:03:30;9.90;99.90
48836;DHT22;62581;47.342;7.908;2023-04-24T04:05:57;9.90;99.90
48836;DHT22;62581;47.342;7.908;2023-04-24T04:08:24;9.90;99.90
48836;DHT22;62581;47.342;7.908;2023-04-24T04:10:51;9.80;99.90
48836;DHT22;62581;47.342;7.908;2023-04-24T04:13:18;9.80;99.90
48836;DHT22;62581;47.342;7.908;2023-04-24T04:15:46;9.70;99.90
48836;DHT22;62581;47.342;7.908;2023-04-24T04:18:12;9.80;99.90
48836;DHT22;62581;47.342;7.908;2023-04-24T04:20:39;9.70;99.90
48836;DHT22;62581;47.342;7.908;2023-04-24T04:23:06;9.70;99.90
48836;DHT22;62581;47.342;7.908;2023-04-24T04:25:33;9.70;99.90
48836;DHT22;62581;47.342;7.908;2023-04-24T04:27:59;9.80;99.90
48836;DHT22;62581;47.342;7.908;2023-04-24T04:30:27;9.80;99.90
48836;DHT22;62581;47.342;7.908;2023-04-24T04:32:56;9.80;99.90
48836;DHT22;62581;47.342;7.908;2023-04-24T04:35:23;9.80;99.90
48836;DHT22;62581;47.342;7.908;2023-04-24T04:37:50;9.80;99.90
48836;DHT22;62581;47.342;7.908;2023-04-24T04:40:17;9.80;99.90
48836;DHT22;62581;47.342;7.908;2023-04-24T04:42:43;9.80;99.90
48836;DHT22;62581;47.342;7.908;2023-04-24T04:45:11;9.80;99.90
48836;DHT22;62581;47.342;7.908;2023-04-24T04:47:38;9.80;99.90
48836;DHT22;62581;47.342;7.908;2023-04-24T04:50:07;9.80;99.90
48836;DHT22;62581;47.342;7.908;2023-04-24T04:52:34;9.80;99.90
48836;DHT22;62581;47.342;7.908;2023-04-24T04:55:01;9.90;99.90
48836;DHT22;62581;47.342;7.908;2023-04-24T04:57:28;9.90;99.90
48836;DHT22;62581;47.342;7.908;2023-04-24T04:59:55;9.90;99.90
48836;DHT22;62581;47.342;7.908;2023-04-24T05:02:22;9.90;99.90
48836;DHT22;62581;47.342;7.908;2023-04-24T05:04:48;9.90;99.90
48836;DHT22;62581;47.342;7.908;2023-04-24T05:07:17;9.90;99.90
48836;DHT22;62581;47.342;7.908;2023-04-24T05:09:43;9.90;99.90
48836;DHT22;62581;47.342;7.908;2023-04-24T05:12:10;9.90;99.90
48836;DHT22;62581;47.342;7.908;2023-04-24T05:14:37;10.00;99.90
48836;DHT22;62581;47.342;7.908;2023-04-24T05:17:03;10.00;99.90
48836;DHT22;62581;47.342;7.908;2023-04-24T05:19:30;10.10;99.90
48836;DHT22;62581;47.342;7.908;2023-04-24T05:21:58;10.00;99.90
48836;DHT22;62581;47.342;7.908;2023-04-24T05:24:29;10.00;99.90
48836;DHT22;62581;47.342;7.908;2023-04-24T05:26:56;10.00;99.90
48836;DHT22;62581;47.342;7.908;2023-04-24T05:29:23;10.00;99.90
48836;DHT22;62581;47.342;7.908;2023-04-24T05:31:51;10.00;99.90
48836;DHT22;62581;47.342;7.908;2023-04-24T05:34:18;10.00;99.90
48836;DHT22;62581;47.342;7.908;2023-04-24T05:36:45;10.00;99.90
48836;DHT22;62581;47.342;7.908;2023-04-24T05:39:11;10.10;99.90
48836;DHT22;62581;47.342;7.908;2023-04-24T05:41:39;10.10;99.90
48836;DHT22;62581;47.342;7.908;2023-04-24T05:44:06;10.00;99.90
48836;DHT22;62581;47.342;7.908;2023-04-24T05:46:33;10.00;99.90
48836;DHT22;62581;47.342;7.908;2023-04-24T05:49:00;10.10;99.90
48836;DHT22;62581;47.342;7.908;2023-04-24T05:51:26;10.10;99.90
48836;DHT22;62581;47.342;7.908;2023-04-24T05:53:53;10.10;99.90
48836;DHT22;62581;47.342;7.908;2023-04-24T05:56:20;10.10;99.90
48836;DHT22;62581;47.342;7.908;2023-04-24T05:58:48;10.10;99.90
48836;DHT22;62581;47.342;7.908;2023-04-24T06:01:17;10.20;99.90
48836;DHT22;62581;47.342;7.908;2023-04-24T06:03:45;10.40;99.90
48836;DHT22;62581;47.342;7.908;2023-04-24T06:06:11;10.50;99.90
48836;DHT22;62581;47.342;7.908;2023-04-24T06:08:39;10.50;99.90
48836;DHT22;62581;47.342;7.908;2023-04-24T06:11:05;10.50;99.90
48836;DHT22;62581;47.342;7.908;2023-04-24T06:13:32;10.60;99.90
48836;DHT22;62581;47.342;7.908;2023-04-24T06:16:00;10.80;99.90
48836;DHT22;62581;47.342;7.908;2023-04-24T06:18:27;10.90;99.90
48836;DHT22;62581;47.342;7.908;2023-04-24T06:20:54;11.10;99.90
48836;DHT22;62581;47.342;7.908;2023-04-24T06:23:21;11.20;99.90
48836;DHT22;62581;47.342;7.908;2023-04-24T06:25:48;11.40;99.90
48836;DHT22;62581;47.342;7.908;2023-04-24T06:28:15;11.50;99.90
48836;DHT22;62581;47.342;7.908;2023-04-24T06:30:42;11.50;99.90
48836;DHT22;62581;47.342;7.908;2023-04-24T06:33:10;11.60;99.90
48836;DHT22;62581;47.342;7.908;2023-04-24T06:35:37;11.50;99.90
48836;DHT22;62581;47.342;7.908;2023-04-24T06:38:04;11.50;99.90
48836;DHT22;62581;47.342;7.908;2023-04-24T06:40:31;11.40;99.90
48836;DHT22;62581;47.342;7.908;2023-04-24T06:42:58;11.40;99.90
48836;DHT22;62581;47.342;7.908;2023-04-24T06:45:28;11.40;99.90
48836;DHT22;62581;47.342;7.908;2023-04-24T06:47:55;11.40;99.90
48836;DHT22;62581;47.342;7.908;2023-04-24T06:50:23;11.40;99.90
48836;DHT22;62581;47.342;7.908;2023-04-24T06:52:50;11.40;99.90
48836;DHT22;62581;47.342;7.908;2023-04-24T06:55:17;11.30;99.90
48836;DHT22;62581;47.342;7.908;2023-04-24T06:57:44;11.30;99.90
48836;DHT22;62581;47.342;7.908;2023-04-24T07:00:11;11.30;99.90
48836;DHT22;62581;47.342;7.908;2023-04-24T07:02:38;11.40;99.90
48836;DHT22;62581;47.342;7.908;2023-04-24T07:05:05;11.50;99.90
48836;DHT22;62581;47.342;7.908;2023-04-24T07:07:35;11.70;99.90
48836;DHT22;62581;47.342;7.908;2023-04-24T07:10:03;11.90;99.90
48836;DHT22;62581;47.342;7.908;2023-04-24T07:12:30;12.00;99.90
48836;DHT22;62581;47.342;7.908;2023-04-24T07:14:57;12.10;99.90
48836;DHT22;62581;47.342;7.908;2023-04-24T07:17:24;12.10;99.90
48836;DHT22;62581;47.342;7.908;2023-04-24T07:19:51;12.10;99.90
48836;DHT22;62581;47.342;7.908;2023-04-24T07:22:17;12.10;99.90
48836;DHT22;62581;47.342;7.908;2023-04-24T07:24:46;12.10;99.90
48836;DHT22;62581;47.342;7.908;2023-04-24T07:27:12;12.10;99.90
48836;DHT22;62581;47.342;7.908;2023-04-24T07:29:40;12.10;99.90
48836;DHT22;62581;47.342;7.908;2023-04-24T07:32:07;12.20;99.90
48836;DHT22;62581;47.342;7.908;2023-04-24T07:34:34;12.20;99.90
48836;DHT22;62581;47.342;7.908;2023-04-24T07:37:01;12.30;99.90
48836;DHT22;62581;47.342;7.908;2023-04-24T07:39:28;12.30;99.90
48836;DHT22;62581;47.342;7.908;2023-04-24T07:41:56;12.10;99.90
48836;DHT22;62581;47.342;7.908;2023-04-24T07:44:24;11.90;99.90
48836;DHT22;62581;47.342;7.908;2023-04-24T07:46:50;11.80;99.90
48836;DHT22;62581;47.342;7.908;2023-04-24T07:49:17;11.70;99.90
48836;DHT22;62581;47.342;7.908;2023-04-24T07:51:44;11.70;99.90
48836;DHT22;62581;47.342;7.908;2023-04-24T07:54:11;11.60;99.90
48836;DHT22;62581;47.342;7.908;2023-04-24T07:56:38;11.50;99.90
48836;DHT22;62581;47.342;7.908;2023-04-24T07:59:06;11.40;99.90
48836;DHT22;62581;47.342;7.908;2023-04-24T08:01:33;11.50;99.90
48836;DHT22;62581;47.342;7.908;2023-04-24T08:04:00;11.60;99.90
48836;DHT22;62581;47.342;7.908;2023-04-24T08:06:27;11.60;99.90
48836;DHT22;62581;47.342;7.908;2023-04-24T08:08:55;11.60;99.90
48836;DHT22;62581;47.342;7.908;2023-04-24T08:11:22;11.60;99.90
48836;DHT22;62581;47.342;7.908;2023-04-24T08:13:49;11.60;99.90
48836;DHT22;62581;47.342;7.908;2023-04-24T08:16:17;11.60;99.90
48836;DHT22;62581;47.342;7.908;2023-04-24T08:18:43;11.60;99.90
48836;DHT22;62581;47.342;7.908;2023-04-24T08:21:10;11.70;99.90
48836;DHT22;62581;47.342;7.908;2023-04-24T08:23:42;11.70;99.90
48836;DHT22;62581;47.342;7.908;2023-04-24T08:26:09;12.00;99.90
48836;DHT22;62581;47.342;7.908;2023-04-24T08:28:36;11.90;99.90
48836;DHT22;62581;47.342;7.908;2023-04-24T08:31:03;12.00;99.90
48836;DHT22;62581;47.342;7.908;2023-04-24T08:33:31;12.10;99.90
48836;DHT22;62581;47.342;7.908;2023-04-24T08:35:59;12.20;99.90
48836;DHT22;62581;47.342;7.908;2023-04-24T08:38:26;12.10;99.90
48836;DHT22;62581;47.342;7.908;2023-04-24T08:40:53;12.10;99.90
48836;DHT22;62581;47.342;7.908;2023-04-24T08:43:20;12.10;99.90
48836;DHT22;62581;47.342;7.908;2023-04-24T08:45:47;12.00;99.90
48836;DHT22;62581;47.342;7.908;2023-04-24T08:48:14;11.90;99.90
48836;DHT22;62581;47.342;7.908;2023-04-24T08:50:42;11.90;99.90
48836;DHT22;62581;47.342;7.908;2023-04-24T08:53:10;11.70;99.90
48836;DHT22;62581;47.342;7.908;2023-04-24T08:55:38;11.70;99.90
48836;DHT22;62581;47.342;7.908;2023-04-24T08:58:07;11.60;99.90
48836;DHT22;62581;47.342;7.908;2023-04-24T09:00:34;11.50;99.90
48836;DHT22;62581;47.342;7.908;2023-04-24T09:03:01;11.60;99.90
48836;DHT22;62581;47.342;7.908;2023-04-24T09:05:28;11.70;99.90
48836;DHT22;62581;47.342;7.908;2023-04-24T09:07:57;11.60;99.90
48836;DHT22;62581;47.342;7.908;2023-04-24T09:10:24;11.70;99.90
48836;DHT22;62581;47.342;7.908;2023-04-24T09:12:51;11.90;99.90
48836;DHT22;62581;47.342;7.908;2023-04-24T09:15:18;12.10;99.90
48836;DHT22;62581;47.342;7.908;2023-04-24T09:17:46;12.40;99.90
48836;DHT22;62581;47.342;7.908;2023-04-24T09:20:12;12.60;99.90
48836;DHT22;62581;47.342;7.908;2023-04-24T09:22:40;12.80;99.90
48836;DHT22;62581;47.342;7.908;2023-04-24T09:25:09;12.80;99.90
48836;DHT22;62581;47.342;7.908;2023-04-24T09:27:41;12.80;99.90
48836;DHT22;62581;47.342;7.908;2023-04-24T09:30:08;12.80;99.90
48836;DHT22;62581;47.342;7.908;2023-04-24T09:32:35;12.80;99.90
48836;DHT22;62581;47.342;7.908;2023-04-24T09:35:05;12.50;99.90
48836;DHT22;62581;47.342;7.908;2023-04-24T09:37:34;12.60;99.90
48836;DHT22;62581;47.342;7.908;2023-04-24T09:40:13;12.70;99.90
48836;DHT22;62581;47.342;7.908;2023-04-24T09:42:40;12.70;99.90
48836;DHT22;62581;47.342;7.908;2023-04-24T09:45:09;12.80;99.90
48836;DHT22;62581;47.342;7.908;2023-04-24T09:47:36;12.90;99.90
48836;DHT22;62581;47.342;7.908;2023-04-24T09:50:10;13.10;99.90
48836;DHT22;62581;47.342;7.908;2023-04-24T09:52:39;13.40;99.90
48836;DHT22;62581;47.342;7.908;2023-04-24T09:55:11;13.60;99.90
48836;DHT22;62581;47.342;7.908;2023-04-24T09:57:46;14.00;99.90
48836;DHT22;62581;47.342;7.908;2023-04-24T10:00:13;14.30;99.90
48836;DHT22;62581;47.342;7.908;2023-04-24T10:02:43;14.20;99.90
48836;DHT22;62581;47.342;7.908;2023-04-24T10:05:11;14.10;99.90
48836;DHT22;62581;47.342;7.908;2023-04-24T10:07:37;14.00;99.90
48836;DHT22;62581;47.342;7.908;2023-04-24T10:10:04;14.00;99.90
48836;DHT22;62581;47.342;7.908;2023-04-24T10:12:33;13.70;99.90
48836;DHT22;62581;47.342;7.908;2023-04-24T10:15:00;13.50;99.90
48836;DHT22;62581;47.342;7.908;2023-04-24T10:17:28;13.00;99.90
48836;DHT22;62581;47.342;7.908;2023-04-24T10:19:55;13.10;99.90
48836;DHT22;62581;47.342;7.908;2023-04-24T10:22:22;13.20;99.90
48836;DHT22;62581;47.342;7.908;2023-04-24T10:24:49;12.90;99.90
48836;DHT22;62581;47.342;7.908;2023-04-24T10:27:16;13.00;99.90
48836;DHT22;62581;47.342;7.908;2023-04-24T10:29:44;13.00;99.90
48836;DHT22;62581;47.342;7.908;2023-04-24T10:32:11;13.10;99.90
48836;DHT22;62581;47.342;7.908;2023-04-24T10:34:38;13.30;99.90
48836;DHT22;62581;47.342;7.908;2023-04-24T10:37:05;13.50;99.90
48836;DHT22;62581;47.342;7.908;2023-04-24T10:39:31;13.20;99.90
48836;DHT22;62581;47.342;7.908;2023-04-24T10:41:58;13.40;99.90
48836;DHT22;62581;47.342;7.908;2023-04-24T10:44:27;13.70;99.90
48836;DHT22;62581;47.342;7.908;2023-04-24T10:47:03;13.90;99.90
48836;DHT22;62581;47.342;7.908;2023-04-24T10:49:31;14.20;99.90
48836;DHT22;62581;47.342;7.908;2023-04-24T10:52:00;14.20;99.90
48836;DHT22;62581;47.342;7.908;2023-04-24T10:54:28;14.30;99.90
48836;DHT22;62581;47.342;7.908;2023-04-24T10:59:36;14.10;99.90
48836;DHT22;62581;47.342;7.908;2023-04-24T11:02:04;14.20;99.90
48836;DHT22;62581;47.342;7.908;2023-04-24T11:04:33;14.00;99.90
48836;DHT22;62581;47.342;7.908;2023-04-24T11:07:00;14.00;99.90
48836;DHT22;62581;47.342;7.908;2023-04-24T11:09:27;14.10;99.90
48836;DHT22;62581;47.342;7.908;2023-04-24T11:12:03;13.90;99.90
48836;DHT22;62581;47.342;7.908;2023-04-24T11:17:26;14.00;99.90
48836;DHT22;62581;47.342;7.908;2023-04-24T11:19:53;14.10;99.90
48836;DHT22;62581;47.342;7.908;2023-04-24T11:22:26;14.40;99.90
48836;DHT22;62581;47.342;7.908;2023-04-24T11:24:55;14.20;99.90
48836;DHT22;62581;47.342;7.908;2023-04-24T11:27:22;14.50;99.90
48836;DHT22;62581;47.342;7.908;2023-04-24T11:29:58;14.60;99.90
48836;DHT22;62581;47.342;7.908;2023-04-24T11:32:27;14.60;99.90
48836;DHT22;62581;47.342;7.908;2023-04-24T11:34:54;14.60;99.90
48836;DHT22;62581;47.342;7.908;2023-04-24T11:37:22;14.60;99.90
48836;DHT22;62581;47.342;7.908;2023-04-24T11:39:53;14.50;99.90
48836;DHT22;62581;47.342;7.908;2023-04-24T11:42:20;14.30;99.90
48836;DHT22;62581;47.342;7.908;2023-04-24T11:44:47;14.00;99.90
48836;DHT22;62581;47.342;7.908;2023-04-24T11:47:14;13.90;99.90
48836;DHT22;62581;47.342;7.908;2023-04-24T11:49:42;14.10;99.90
48836;DHT22;62581;47.342;7.908;2023-04-24T11:52:09;14.10;99.90
48836;DHT22;62581;47.342;7.908;2023-04-24T11:54:36;14.40;99.90
48836;DHT22;62581;47.342;7.908;2023-04-24T11:57:03;14.70;99.90
48836;DHT22;62581;47.342;7.908;2023-04-24T11:59:35;15.00;99.90
48836;DHT22;62581;47.342;7.908;2023-04-24T12:02:01;14.70;99.90
48836;DHT22;62581;47.342;7.908;2023-04-24T12:04:37;15.30;99.90
48836;DHT22;62581;47.342;7.908;2023-04-24T12:07:05;15.50;99.90
48836;DHT22;62581;47.342;7.908;2023-04-24T12:09:40;15.60;99.90
48836;DHT22;62581;47.342;7.908;2023-04-24T12:12:07;15.50;99.90
48836;DHT22;62581;47.342;7.908;2023-04-24T12:14:41;15.50;99.90
48836;DHT22;62581;47.342;7.908;2023-04-24T12:17:08;15.20;99.90
48836;DHT22;62581;47.342;7.908;2023-04-24T12:19:35;15.40;99.90
48836;DHT22;62581;47.342;7.908;2023-04-24T12:22:04;15.70;99.90
48836;DHT22;62581;47.342;7.908;2023-04-24T12:24:32;15.70;99.90
48836;DHT22;62581;47.342;7.908;2023-04-24T12:26:59;15.30;99.90
48836;DHT22;62581;47.342;7.908;2023-04-24T12:29:26;15.30;99.90
48836;DHT22;62581;47.342;7.908;2023-04-24T12:31:53;15.40;99.90
48836;DHT22;62581;47.342;7.908;2023-04-24T12:34:20;16.10;99.90
48836;DHT22;62581;47.342;7.908;2023-04-24T12:36:47;16.00;99.90
48836;DHT22;62581;47.342;7.908;2023-04-24T12:39:15;15.80;99.90
48836;DHT22;62581;47.342;7.908;2023-04-24T12:41:53;15.60;99.90
48836;DHT22;62581;47.342;7.908;2023-04-24T12:44:28;16.70;99.90
48836;DHT22;62581;47.342;7.908;2023-04-24T12:46:54;19.00;99.90
48836;DHT22;62581;47.342;7.908;2023-04-24T12:49:21;19.30;95.60
48836;DHT22;62581;47.342;7.908;2023-04-24T12:51:48;20.20;94.50
48836;DHT22;62581;47.342;7.908;2023-04-24T12:54:15;19.40;94.50
48836;DHT22;62581;47.342;7.908;2023-04-24T12:56:42;19.80;93.70
48836;DHT22;62581;47.342;7.908;2023-04-24T12:59:10;19.00;93.60
48836;DHT22;62581;47.342;7.908;2023-04-24T13:01:37;17.50;95.00
48836;DHT22;62581;47.342;7.908;2023-04-24T13:04:04;17.00;96.50
48836;DHT22;62581;47.342;7.908;2023-04-24T13:06:31;16.30;97.10
48836;DHT22;62581;47.342;7.908;2023-04-24T13:08:58;15.60;99.00
48836;DHT22;62581;47.342;7.908;2023-04-24T13:11:25;15.70;98.50
48836;DHT22;62581;47.342;7.908;2023-04-24T13:13:52;15.40;99.30
48836;DHT22;62581;47.342;7.908;2023-04-24T13:16:20;15.20;99.90
48836;DHT22;62581;47.342;7.908;2023-04-24T13:18:48;15.30;99.90
48836;DHT22;62581;47.342;7.908;2023-04-24T13:21:15;14.90;99.90
48836;DHT22;62581;47.342;7.908;2023-04-24T13:23:41;14.80;99.90
48836;DHT22;62581;47.342;7.908;2023-04-24T13:26:08;14.80;99.90
48836;DHT22;62581;47.342;7.908;2023-04-24T13:28:35;14.80;99.90
48836;DHT22;62581;47.342;7.908;2023-04-24T13:31:03;14.70;99.90
48836;DHT22;62581;47.342;7.908;2023-04-24T13:33:33;14.40;99.90
48836;DHT22;62581;47.342;7.908;2023-04-24T13:35:59;14.50;99.90
48836;DHT22;62581;47.342;7.908;2023-04-24T13:38:26;14.20;99.90
48836;DHT22;62581;47.342;7.908;2023-04-24T13:40:53;14.40;99.90
48836;DHT22;62581;47.342;7.908;2023-04-24T13:43:20;16.30;99.90
48836;DHT22;62581;47.342;7.908;2023-04-24T13:45:47;18.00;99.90
48836;DHT22;62581;47.342;7.908;2023-04-24T13:48:14;20.60;99.90
48836;DHT22;62581;47.342;7.908;2023-04-24T13:50:42;21.90;97.90
48836;DHT22;62581;47.342;7.908;2023-04-24T13:53:09;23.10;96.30
48836;DHT22;62581;47.342;7.908;2023-04-24T13:55:36;22.20;94.30
48836;DHT22;62581;47.342;7.908;2023-04-24T13:58:04;20.70;95.70
48836;DHT22;62581;47.342;7.908;2023-04-24T14:00:31;20.10;97.20
48836;DHT22;62581;47.342;7.908;2023-04-24T14:02:58;20.20;96.10
48836;DHT22;62581;47.342;7.908;2023-04-24T14:05:26;20.20;95.80
48836;DHT22;62581;47.342;7.908;2023-04-24T14:07:54;19.20;96.90
48836;DHT22;62581;47.342;7.908;2023-04-24T14:10:21;18.90;96.70
48836;DHT22;62581;47.342;7.908;2023-04-24T14:12:47;18.20;95.70
48836;DHT22;62581;47.342;7.908;2023-04-24T14:15:14;17.50;97.30
48836;DHT22;62581;47.342;7.908;2023-04-24T14:17:41;17.30;98.50
48836;DHT22;62581;47.342;7.908;2023-04-24T14:20:08;17.30;97.70
48836;DHT22;62581;47.342;7.908;2023-04-24T14:22:35;17.30;98.10
48836;DHT22;62581;47.342;7.908;2023-04-24T14:25:07;17.20;97.90
48836;DHT22;62581;47.342;7.908;2023-04-24T14:27:34;16.30;98.60
48836;DHT22;62581;47.342;7.908;2023-04-24T14:30:01;15.80;98.80
48836;DHT22;62581;47.342;7.908;2023-04-24T14:32:28;15.30;99.50
48836;DHT22;62581;47.342;7.908;2023-04-24T14:34:55;15.30;99.90
48836;DHT22;62581;47.342;7.908;2023-04-24T14:37:21;15.40;99.90
48836;DHT22;62581;47.342;7.908;2023-04-24T14:39:48;15.70;99.90
48836;DHT22;62581;47.342;7.908;2023-04-24T14:42:16;16.20;99.90
48836;DHT22;62581;47.342;7.908;2023-04-24T14:44:43;16.40;99.90
48836;DHT22;62581;47.342;7.908;2023-04-24T14:47:10;16.30;99.60
48836;DHT22;62581;47.342;7.908;2023-04-24T14:49:37;16.00;99.90
48836;DHT22;62581;47.342;7.908;2023-04-24T14:52:04;15.20;99.90
48836;DHT22;62581;47.342;7.908;2023-04-24T14:54:31;15.10;99.90
48836;DHT22;62581;47.342;7.908;2023-04-24T14:56:57;14.90;99.90
48836;DHT22;62581;47.342;7.908;2023-04-24T14:59:25;14.60;99.90
48836;DHT22;62581;47.342;7.908;2023-04-24T15:01:53;14.30;99.90
48836;DHT22;62581;47.342;7.908;2023-04-24T15:04:22;14.30;99.90
48836;DHT22;62581;47.342;7.908;2023-04-24T15:06:50;14.00;99.90
48836;DHT22;62581;47.342;7.908;2023-04-24T15:09:18;13.50;99.90
48836;DHT22;62581;47.342;7.908;2023-04-24T15:11:45;13.60;99.90
48836;DHT22;62581;47.342;7.908;2023-04-24T15:14:12;14.80;99.90
48836;DHT22;62581;47.342;7.908;2023-04-24T15:16:40;17.70;99.90
48836;DHT22;62581;47.342;7.908;2023-04-24T15:19:07;20.20;99.90
48836;DHT22;62581;47.342;7.908;2023-04-24T15:21:35;20.20;99.90
48836;DHT22;62581;47.342;7.908;2023-04-24T15:24:02;19.40;99.90
48836;DHT22;62581;47.342;7.908;2023-04-24T15:26:28;19.20;99.90
48836;DHT22;62581;47.342;7.908;2023-04-24T15:28:55;19.10;99.90
48836;DHT22;62581;47.342;7.908;2023-04-24T15:31:22;18.80;99.90
48836;DHT22;62581;47.342;7.908;2023-04-24T15:33:50;18.60;99.90
48836;DHT22;62581;47.342;7.908;2023-04-24T15:36:17;17.90;99.90
48836;DHT22;62581;47.342;7.908;2023-04-24T15:38:44;17.20;99.90